Time;durP1;ratioP1;P1;durP2;ratioP2;P2;SDS_P1;SDS_P2;PMS_P1;PMS_P2;Temp;Humidity;BMP_temperature;BMP_pressure;BME280_temperature;BME280_humidity;BME280_pressure;Samples;Min_cycle;Max_cycle;Signal;HPM_P1;HPM_P2
2023/08/01 00:00:29;;;;;;;8.95;4.03;;;21.90;99.90;;;;;;5052665;28;20017;-60
2023/08/01 00:02:55;;;;;;;9.80;4.00;;;21.90;99.90;;;;;;5053092;28;20025;-60
2023/08/01 00:05:20;;;;;;;9.30;3.90;;;21.80;99.90;;;;;;5052950;28;20040;-59
2023/08/01 00:07:46;;;;;;;7.10;3.70;;;21.70;99.90;;;;;;5052979;28;20497;-59
2023/08/01 00:10:11;;;;;;;8.35;3.70;;;21.60;99.90;;;;;;5052848;28;20482;-59
2023/08/01 00:12:37;;;;;;;9.75;4.05;;;21.60;99.90;;;;;;5052592;28;20375;-59
2023/08/01 00:15:03;;;;;;;9.52;3.88;;;21.50;99.90;;;;;;5052174;28;20427;-59
2023/08/01 00:17:29;;;;;;;8.93;4.20;;;21.40;99.90;;;;;;5052558;28;20041;-59
2023/08/01 00:19:55;;;;;;;9.13;4.05;;;21.40;99.90;;;;;;5052912;28;20013;-58
2023/08/01 00:22:21;;;;;;;9.05;3.65;;;21.30;99.90;;;;;;5052452;28;20571;-59
2023/08/01 00:24:47;;;;;;;9.60;4.03;;;21.30;99.90;;;;;;5052273;28;20049;-59
2023/08/01 00:27:13;;;;;;;6.57;3.60;;;21.30;99.90;;;;;;5052346;28;20029;-59
2023/08/01 00:29:39;;;;;;;9.05;4.18;;;21.30;99.90;;;;;;5052493;28;20082;-59
2023/08/01 00:32:05;;;;;;;8.07;3.83;;;21.30;99.90;;;;;;5052373;28;20482;-58
2023/08/01 00:34:31;;;;;;;9.23;4.35;;;21.30;99.90;;;;;;5052356;28;20028;-59
2023/08/01 00:36:57;;;;;;;11.43;4.00;;;21.30;99.90;;;;;;5052241;28;20052;-59
2023/08/01 00:39:23;;;;;;;9.13;3.95;;;21.30;99.90;;;;;;5052127;28;20025;-59
2023/08/01 00:41:48;;;;;;;9.90;4.45;;;21.40;99.90;;;;;;5052108;28;20021;-59
2023/08/01 00:44:14;;;;;;;8.43;4.03;;;21.30;99.90;;;;;;5051686;28;20436;-59
2023/08/01 00:46:40;;;;;;;8.82;4.28;;;21.40;99.90;;;;;;5051969;28;20021;-59
2023/08/01 00:49:08;;;;;;;10.65;4.32;;;21.60;99.90;;;;;;5051986;28;20107;-59
2023/08/01 00:51:34;;;;;;;6.60;3.88;;;21.80;99.90;;;;;;5051065;28;20028;-59
2023/08/01 00:54:00;;;;;;;10.20;3.92;;;21.90;99.90;;;;;;5051968;28;20056;-59
2023/08/01 00:56:26;;;;;;;8.52;4.03;;;21.90;99.90;;;;;;5051742;28;20028;-59
2023/08/01 00:58:52;;;;;;;9.32;4.20;;;21.90;99.90;;;;;;5051517;28;20048;-60
2023/08/01 01:01:17;;;;;;;9.70;4.18;;;22.00;99.90;;;;;;5051774;28;20025;-59
2023/08/01 01:03:44;;;;;;;8.88;3.97;;;22.00;99.90;;;;;;5051662;28;20029;-59
2023/08/01 01:06:18;;;;;;;9.10;4.10;;;22.20;99.90;;;;;;5051714;28;20107;-59
2023/08/01 01:08:44;;;;;;;13.10;4.57;;;22.20;99.90;;;;;;5051657;28;20087;-59
2023/08/01 01:11:10;;;;;;;11.90;4.35;;;22.30;99.90;;;;;;5051569;28;20021;-59
2023/08/01 01:13:36;;;;;;;9.48;4.32;;;22.30;99.90;;;;;;5051160;28;20033;-59
2023/08/01 01:16:01;;;;;;;9.23;4.15;;;22.30;99.90;;;;;;5051419;28;20409;-59
2023/08/01 01:18:27;;;;;;;14.77;4.80;;;22.30;99.90;;;;;;5051879;28;20040;-59
2023/08/01 01:20:53;;;;;;;11.32;4.57;;;22.20;99.90;;;;;;5051383;28;20108;-59
2023/08/01 01:23:21;;;;;;;10.80;4.50;;;22.10;99.90;;;;;;5051594;28;20060;-59
2023/08/01 01:25:49;;;;;;;12.70;4.30;;;22.10;99.90;;;;;;5051527;28;20059;-59
2023/08/01 01:28:16;;;;;;;11.77;4.47;;;22.00;99.90;;;;;;5051046;28;20029;-60
2023/08/01 01:30:44;;;;;;;14.90;4.70;;;21.80;99.90;;;;;;5051427;28;20115;-60
2023/08/01 01:33:09;;;;;;;11.32;4.43;;;21.70;99.90;;;;;;5051248;28;20063;-58
2023/08/01 01:35:36;;;;;;;10.82;4.68;;;21.70;99.90;;;;;;5050065;28;20483;-59
2023/08/01 01:38:03;;;;;;;11.07;4.35;;;21.70;99.90;;;;;;5051311;28;20464;-59
2023/08/01 01:40:33;;;;;;;10.98;4.10;;;21.70;99.90;;;;;;5051119;28;20028;-59
2023/08/01 01:43:00;;;;;;;11.65;4.68;;;21.70;99.90;;;;;;5050835;28;20029;-59
2023/08/01 01:45:26;;;;;;;10.65;4.30;;;21.70;99.90;;;;;;5051073;28;20417;-59
2023/08/01 01:47:52;;;;;;;13.57;4.55;;;21.70;99.90;;;;;;5051204;28;20063;-60
2023/08/01 01:50:18;;;;;;;12.60;5.00;;;21.60;99.90;;;;;;5051519;28;20022;-59
2023/08/01 01:52:44;;;;;;;12.70;4.47;;;21.70;99.90;;;;;;5049205;28;20037;-59
2023/08/01 01:55:10;;;;;;;12.60;4.50;;;21.70;99.90;;;;;;5051020;28;20036;-60
2023/08/01 01:57:36;;;;;;;11.63;4.47;;;21.70;99.90;;;;;;5050746;28;20033;-59
2023/08/01 02:00:05;;;;;;;13.55;4.70;;;21.70;99.90;;;;;;5050839;28;20029;-59
2023/08/01 02:02:31;;;;;;;11.57;4.47;;;21.70;99.90;;;;;;5051515;28;20025;-59
2023/08/01 02:04:57;;;;;;;9.98;4.53;;;21.70;99.90;;;;;;5050941;28;20048;-59
2023/08/01 02:07:23;;;;;;;15.10;4.80;;;21.80;99.90;;;;;;5051192;28;20029;-59
2023/08/01 02:09:48;;;;;;;12.45;4.50;;;22.00;99.90;;;;;;5051184;28;20026;-59
2023/08/01 02:12:14;;;;;;;13.65;5.18;;;22.20;99.90;;;;;;5050589;28;20029;-59
2023/08/01 02:14:40;;;;;;;13.13;4.88;;;22.30;99.90;;;;;;5050707;28;20063;-59
2023/08/01 02:17:07;;;;;;;12.15;4.82;;;22.30;99.90;;;;;;5051181;28;20402;-59
2023/08/01 02:19:32;;;;;;;15.13;4.97;;;22.20;99.90;;;;;;5050748;28;20048;-59
2023/08/01 02:21:58;;;;;;;11.60;4.97;;;22.30;99.90;;;;;;5050830;28;20021;-59
2023/08/01 02:24:24;;;;;;;13.43;4.85;;;22.30;99.90;;;;;;5050970;28;20043;-59
2023/08/01 02:26:50;;;;;;;13.02;4.60;;;22.20;99.90;;;;;;5050575;28;20390;-59
2023/08/01 02:29:16;;;;;;;12.02;5.00;;;22.10;99.90;;;;;;5050860;28;20035;-58
2023/08/01 02:31:42;;;;;;;12.88;4.85;;;22.10;99.90;;;;;;5050795;28;20397;-60
2023/08/01 02:34:07;;;;;;;13.73;4.90;;;22.20;99.90;;;;;;5050648;28;20029;-59
2023/08/01 02:36:33;;;;;;;12.30;4.60;;;22.10;99.90;;;;;;5051011;28;20104;-59
2023/08/01 02:38:59;;;;;;;10.40;4.70;;;22.00;99.90;;;;;;5050574;28;20500;-60
2023/08/01 02:41:24;;;;;;;10.38;4.60;;;22.00;99.90;;;;;;5050326;28;20025;-60
2023/08/01 02:43:50;;;;;;;15.07;5.18;;;21.80;99.90;;;;;;5049328;28;20028;-60
2023/08/01 02:46:16;;;;;;;15.68;5.55;;;21.60;99.90;;;;;;5050677;28;20047;-60
2023/08/01 02:48:41;;;;;;;15.77;5.82;;;21.40;99.90;;;;;;5050674;28;20057;-60
2023/08/01 02:51:09;;;;;;;17.33;5.78;;;21.30;99.90;;;;;;5050550;28;20078;-59
2023/08/01 02:53:35;;;;;;;16.98;5.82;;;21.20;99.90;;;;;;5050707;28;20589;-60
2023/08/01 02:56:01;;;;;;;10.85;4.50;;;21.20;99.90;;;;;;5050118;28;20029;-60
2023/08/01 02:58:27;;;;;;;12.90;5.53;;;21.10;99.90;;;;;;5050501;28;20044;-60
2023/08/01 03:00:52;;;;;;;14.93;6.28;;;21.10;99.90;;;;;;5050527;28;20032;-60
2023/08/01 03:03:18;;;;;;;13.50;5.20;;;21.00;99.90;;;;;;5050378;28;20040;-60
2023/08/01 03:05:43;;;;;;;15.32;5.53;;;21.00;99.90;;;;;;5053718;28;20025;-60
2023/08/01 03:08:09;;;;;;;12.55;5.30;;;21.00;99.90;;;;;;5053807;28;20056;-61
2023/08/01 03:10:35;;;;;;;17.77;6.00;;;21.00;99.90;;;;;;5053673;28;20021;-59
2023/08/01 03:13:00;;;;;;;13.95;5.00;;;21.00;99.90;;;;;;5053627;28;20463;-60
2023/08/01 03:15:27;;;;;;;13.02;5.35;;;21.00;99.90;;;;;;5054208;28;20041;-60
2023/08/01 03:17:53;;;;;;;13.57;5.13;;;21.00;99.90;;;;;;5053802;28;20036;-60
2023/08/01 03:20:19;;;;;;;11.82;5.03;;;21.10;99.90;;;;;;5053603;28;20104;-59
2023/08/01 03:22:44;;;;;;;13.45;5.40;;;21.10;99.90;;;;;;5053547;28;20103;-59
2023/08/01 03:25:10;;;;;;;13.48;5.30;;;21.20;99.90;;;;;;5053124;28;20050;-60
2023/08/01 03:27:36;;;;;;;12.57;5.18;;;21.40;99.90;;;;;;5053610;28;20032;-59
2023/08/01 03:30:04;;;;;;;13.20;4.90;;;21.50;99.90;;;;;;5053664;28;20028;-60
2023/08/01 03:32:29;;;;;;;12.20;4.88;;;21.60;99.90;;;;;;5053848;28;20410;-59
2023/08/01 03:34:55;;;;;;;14.15;5.20;;;21.60;99.90;;;;;;5053528;28;20050;-60
2023/08/01 03:37:21;;;;;;;12.82;4.80;;;21.80;99.90;;;;;;5053253;28;20048;-59
2023/08/01 03:39:47;;;;;;;14.85;5.70;;;21.80;99.90;;;;;;5053049;28;20100;-60
2023/08/01 03:42:12;;;;;;;11.25;4.90;;;21.70;99.90;;;;;;5053693;28;20029;-60
2023/08/01 03:44:38;;;;;;;13.38;4.60;;;21.80;99.90;;;;;;5052763;28;20028;-60
2023/08/01 03:47:04;;;;;;;9.32;4.38;;;21.90;99.90;;;;;;5053553;28;20040;-59
2023/08/01 03:49:30;;;;;;;11.55;4.82;;;21.90;99.90;;;;;;5053196;28;20054;-59
2023/08/01 03:51:55;;;;;;;9.68;4.70;;;22.00;99.90;;;;;;5053194;28;20394;-60
2023/08/01 03:54:21;;;;;;;15.25;5.10;;;21.90;99.90;;;;;;5052601;28;20029;-60
2023/08/01 03:56:47;;;;;;;12.65;5.10;;;22.10;99.90;;;;;;5052984;28;20155;-60
2023/08/01 03:59:14;;;;;;;12.43;4.38;;;21.90;99.90;;;;;;5053043;28;20021;-60
2023/08/01 04:01:40;;;;;;;14.70;4.90;;;21.80;99.90;;;;;;5053397;28;20393;-59
2023/08/01 04:04:06;;;;;;;13.55;4.88;;;21.80;99.90;;;;;;5052835;28;20026;-60
2023/08/01 04:06:32;;;;;;;13.10;4.57;;;21.60;99.90;;;;;;5052933;28;20029;-60
2023/08/01 04:08:59;;;;;;;11.02;4.82;;;21.60;99.90;;;;;;5052522;28;20378;-60
2023/08/01 04:11:25;;;;;;;15.73;4.78;;;21.40;99.90;;;;;;5052718;28;20047;-60
2023/08/01 04:13:51;;;;;;;11.77;4.88;;;21.40;99.90;;;;;;5053024;28;20036;-60
2023/08/01 04:16:17;;;;;;;12.55;4.63;;;21.40;99.90;;;;;;5052099;28;20033;-60
2023/08/01 04:18:42;;;;;;;13.32;5.15;;;21.30;99.90;;;;;;5051149;28;20409;-60
2023/08/01 04:21:08;;;;;;;10.65;4.85;;;21.30;99.90;;;;;;5052627;28;20040;-58
2023/08/01 04:23:34;;;;;;;13.30;4.90;;;21.20;99.90;;;;;;5052377;28;20087;-59
2023/08/01 04:25:59;;;;;;;14.73;4.80;;;21.20;99.90;;;;;;5052481;28;20074;-59
2023/08/01 04:28:25;;;;;;;13.85;5.20;;;21.20;99.90;;;;;;5052537;28;20671;-59
2023/08/01 04:30:52;;;;;;;12.98;5.30;;;21.10;99.90;;;;;;5052400;28;20515;-59
2023/08/01 04:33:18;;;;;;;13.77;5.60;;;21.10;99.90;;;;;;5052150;28;20108;-60
2023/08/01 04:35:43;;;;;;;12.07;5.30;;;21.10;99.90;;;;;;5051925;28;20112;-60
2023/08/01 04:38:10;;;;;;;11.40;4.53;;;21.10;99.90;;;;;;5052165;28;20108;-60
2023/08/01 04:40:36;;;;;;;10.50;5.15;;;21.20;99.90;;;;;;5052329;28;20036;-59
2023/08/01 04:43:02;;;;;;;8.43;4.03;;;21.40;99.90;;;;;;5052111;28;20470;-59
2023/08/01 04:45:28;;;;;;;10.77;4.25;;;21.60;99.90;;;;;;5052656;28;20029;-60
2023/08/01 04:47:54;;;;;;;7.43;3.50;;;21.60;99.90;;;;;;5052050;28;20029;-59
2023/08/01 04:50:20;;;;;;;5.22;2.38;;;21.70;99.90;;;;;;5051591;28;20025;-60
2023/08/01 04:52:45;;;;;;;4.18;2.20;;;21.70;99.90;;;;;;5051810;28;20478;-60
2023/08/01 04:55:11;;;;;;;3.28;1.92;;;21.80;99.90;;;;;;5051149;28;20032;-59
2023/08/01 04:57:37;;;;;;;2.45;1.40;;;21.80;99.90;;;;;;5051766;28;20037;-60
2023/08/01 05:00:04;;;;;;;4.15;1.48;;;21.80;99.90;;;;;;5052037;28;20017;-60
2023/08/01 05:02:29;;;;;;;3.67;1.60;;;21.90;99.90;;;;;;5051837;28;20090;-60
2023/08/01 05:04:55;;;;;;;4.85;1.73;;;22.00;99.90;;;;;;5051408;28;20052;-60
2023/08/01 05:07:21;;;;;;;6.28;1.77;;;22.00;99.90;;;;;;5051772;28;20606;-60
2023/08/01 05:09:46;;;;;;;8.60;2.30;;;22.00;99.90;;;;;;5051581;28;20409;-60
2023/08/01 05:12:12;;;;;;;8.85;2.53;;;22.00;99.90;;;;;;5051642;28;20039;-59
2023/08/01 05:14:38;;;;;;;8.18;2.63;;;22.00;99.90;;;;;;5051833;28;20031;-60
2023/08/01 05:17:04;;;;;;;9.80;2.58;;;21.90;99.90;;;;;;5051386;28;20518;-60
2023/08/01 05:19:29;;;;;;;8.73;2.40;;;21.80;99.90;;;;;;5051306;28;20021;-60
2023/08/01 05:21:55;;;;;;;8.10;2.28;;;21.70;99.90;;;;;;5051490;28;20448;-60
2023/08/01 05:24:21;;;;;;;6.95;2.10;;;21.60;99.90;;;;;;5051208;28;20048;-61
2023/08/01 05:26:47;;;;;;;8.88;1.90;;;21.50;99.90;;;;;;5050668;28;20112;-60
2023/08/01 05:29:13;;;;;;;4.70;1.75;;;21.40;99.90;;;;;;5051721;28;20029;-59
2023/08/01 05:31:38;;;;;;;7.85;2.17;;;21.50;99.90;;;;;;5050951;28;20355;-61
2023/08/01 05:34:04;;;;;;;7.63;2.05;;;21.40;99.90;;;;;;5051327;28;20375;-60
2023/08/01 05:36:30;;;;;;;5.38;1.88;;;21.30;99.90;;;;;;5051240;28;20403;-61
2023/08/01 05:38:57;;;;;;;6.88;1.77;;;21.30;99.90;;;;;;5051253;28;20462;-61
2023/08/01 05:41:23;;;;;;;6.47;1.83;;;21.30;99.90;;;;;;5051131;28;20048;-61
2023/08/01 05:43:49;;;;;;;8.95;1.98;;;21.30;99.90;;;;;;5051639;28;20052;-60
2023/08/01 05:46:15;;;;;;;6.95;1.88;;;21.30;99.90;;;;;;5050947;28;20021;-61
2023/08/01 05:48:41;;;;;;;8.65;2.50;;;21.30;99.90;;;;;;5050692;28;20143;-60
2023/08/01 05:51:07;;;;;;;8.48;2.15;;;21.30;99.90;;;;;;5051474;28;20028;-60
2023/08/01 05:53:33;;;;;;;9.93;2.63;;;21.30;99.90;;;;;;5050939;28;20029;-60
2023/08/01 05:55:59;;;;;;;8.13;1.95;;;21.20;99.90;;;;;;5050997;28;20025;-61
2023/08/01 05:58:24;;;;;;;5.97;1.90;;;21.10;99.90;;;;;;5050840;28;20045;-60
2023/08/01 06:00:50;;;;;;;7.38;1.80;;;21.20;99.90;;;;;;5050005;28;20064;-60
2023/08/01 06:03:16;;;;;;;6.07;2.00;;;21.40;99.90;;;;;;5050198;28;20029;-60
2023/08/01 06:05:42;;;;;;;7.78;2.10;;;21.50;99.90;;;;;;5051193;28;20032;-60
2023/08/01 06:08:08;;;;;;;6.85;1.83;;;21.50;99.90;;;;;;5050802;28;20469;-60
2023/08/01 06:10:35;;;;;;;5.28;2.00;;;21.70;99.90;;;;;;5050845;28;20031;-60
2023/08/01 06:13:01;;;;;;;5.05;1.83;;;21.90;99.90;;;;;;5050610;28;20549;-61
2023/08/01 06:15:27;;;;;;;6.65;1.88;;;21.80;99.90;;;;;;5050784;28;20108;-60
2023/08/01 06:17:53;;;;;;;4.93;1.80;;;21.80;99.90;;;;;;5050507;28;20037;-61
2023/08/01 06:20:19;;;;;;;7.35;2.13;;;21.90;99.90;;;;;;5050714;28;20025;-61
2023/08/01 06:22:45;;;;;;;8.88;2.15;;;21.80;99.90;;;;;;5050810;28;20079;-60
2023/08/01 06:25:10;;;;;;;6.53;2.13;;;21.80;99.90;;;;;;5050854;28;20049;-61
2023/08/01 06:27:37;;;;;;;7.20;1.98;;;21.90;99.90;;;;;;5049874;28;20517;-61
2023/08/01 06:30:04;;;;;;;5.22;1.85;;;22.00;99.90;;;;;;5050849;28;20043;-61
2023/08/01 06:32:30;;;;;;;6.22;2.20;;;22.00;99.90;;;;;;5050394;28;20445;-61
2023/08/01 06:34:55;;;;;;;5.10;1.88;;;22.00;99.90;;;;;;5050618;28;20028;-61
2023/08/01 06:37:21;;;;;;;8.43;2.55;;;21.70;99.90;;;;;;5050516;28;20039;-61
2023/08/01 06:39:47;;;;;;;10.82;2.65;;;21.50;99.90;;;;;;5054320;28;20112;-61
2023/08/01 06:42:12;;;;;;;7.47;2.10;;;21.40;99.90;;;;;;5054457;28;20090;-61
2023/08/01 06:44:38;;;;;;;8.35;2.28;;;21.40;99.90;;;;;;5054305;28;20017;-61
2023/08/01 06:47:04;;;;;;;9.40;2.67;;;21.30;99.90;;;;;;5054433;28;20036;-61
2023/08/01 06:49:30;;;;;;;8.80;2.35;;;21.30;99.90;;;;;;5054320;28;20449;-61
2023/08/01 06:51:55;;;;;;;10.77;2.47;;;21.30;99.90;;;;;;5054388;28;20059;-61
2023/08/01 06:54:21;;;;;;;9.68;2.97;;;21.30;99.90;;;;;;5054123;28;20182;-61
2023/08/01 06:56:49;;;;;;;9.48;3.00;;;21.30;99.90;;;;;;5054478;28;20584;-61
2023/08/01 06:59:15;;;;;;;8.25;2.90;;;21.30;99.90;;;;;;5054227;28;20402;-61
2023/08/01 07:01:43;;;;;;;10.77;2.90;;;21.30;99.90;;;;;;5053788;28;20051;-61
2023/08/01 07:04:13;;;;;;;9.82;3.03;;;21.30;99.90;;;;;;5053997;28;20029;-61
2023/08/01 07:06:40;;;;;;;8.20;2.88;;;21.40;99.90;;;;;;5054436;28;20102;-61
2023/08/01 07:09:06;;;;;;;9.85;2.90;;;21.40;99.90;;;;;;5053968;28;20510;-61
2023/08/01 07:11:32;;;;;;;11.25;3.65;;;21.40;99.90;;;;;;5053906;28;20157;-61
2023/08/01 07:13:58;;;;;;;13.30;3.40;;;21.40;99.90;;;;;;5053721;28;20108;-61
2023/08/01 07:16:24;;;;;;;13.82;4.10;;;21.40;99.90;;;;;;5052071;28;20206;-61
2023/08/01 07:18:50;;;;;;;11.82;3.80;;;21.50;99.90;;;;;;5054183;28;20032;-61
2023/08/01 07:21:17;;;;;;;12.32;3.80;;;21.70;99.90;;;;;;5053834;28;20025;-60
2023/08/01 07:23:43;;;;;;;13.63;3.90;;;21.80;99.90;;;;;;5053526;28;20040;-61
2023/08/01 07:26:09;;;;;;;10.35;3.70;;;21.90;99.90;;;;;;5054034;28;20029;-61
2023/08/01 07:28:35;;;;;;;10.00;3.60;;;22.00;99.90;;;;;;5054080;28;20112;-61
2023/08/01 07:31:05;;;;;;;9.70;4.00;;;22.10;99.90;;;;;;5053266;28;20104;-61
2023/08/01 07:33:32;;;;;;;11.88;3.70;;;22.10;99.90;;;;;;5053207;28;20025;-61
2023/08/01 07:35:57;;;;;;;14.00;3.88;;;22.10;99.90;;;;;;5053859;28;20024;-60
2023/08/01 07:38:23;;;;;;;12.30;3.97;;;22.00;99.90;;;;;;5053328;28;20528;-61
2023/08/01 07:40:50;;;;;;;10.32;4.22;;;22.10;99.90;;;;;;5053305;28;20025;-61
2023/08/01 07:43:15;;;;;;;12.65;4.70;;;22.00;99.90;;;;;;5053231;28;20040;-60
2023/08/01 07:45:41;;;;;;;16.15;4.53;;;22.10;99.90;;;;;;5053020;28;20025;-61
2023/08/01 07:48:07;;;;;;;13.20;4.35;;;22.20;99.90;;;;;;5053294;28;20485;-61
2023/08/01 07:50:33;;;;;;;10.43;4.45;;;22.20;99.90;;;;;;5052725;28;20060;-61
2023/08/01 07:52:58;;;;;;;14.85;4.68;;;22.20;99.90;;;;;;5051684;28;20025;-61
2023/08/01 07:55:24;;;;;;;13.25;4.57;;;22.00;99.90;;;;;;5053029;28;20071;-61
2023/08/01 07:57:50;;;;;;;14.40;4.50;;;21.90;99.90;;;;;;5052928;28;20029;-61
2023/08/01 08:00:16;;;;;;;14.98;4.78;;;21.80;99.90;;;;;;5053179;28;20029;-61
2023/08/01 08:02:43;;;;;;;12.68;4.50;;;21.70;99.90;;;;;;5052943;28;20082;-61
2023/08/01 08:05:09;;;;;;;15.65;4.55;;;21.70;99.90;;;;;;5052931;28;20029;-61
2023/08/01 08:07:36;;;;;;;10.27;3.72;;;21.60;99.90;;;;;;5053462;28;20033;-61
2023/08/01 08:10:01;;;;;;;11.63;3.85;;;21.60;99.90;;;;;;5052834;28;20032;-61
2023/08/01 08:12:27;;;;;;;10.65;3.70;;;21.60;99.90;;;;;;5052664;28;20029;-61
2023/08/01 08:14:52;;;;;;;13.77;4.15;;;21.60;99.90;;;;;;5052222;28;20020;-60
2023/08/01 08:17:18;;;;;;;13.00;4.28;;;21.60;99.90;;;;;;5053000;28;20037;-61
2023/08/01 08:19:44;;;;;;;12.07;4.30;;;21.60;99.90;;;;;;5052576;28;20025;-61
2023/08/01 08:22:10;;;;;;;15.00;4.75;;;21.70;99.90;;;;;;5052676;28;20025;-61
2023/08/01 08:24:35;;;;;;;11.55;4.25;;;21.70;99.90;;;;;;5052324;28;20407;-61
2023/08/01 08:27:01;;;;;;;11.95;4.22;;;21.80;99.90;;;;;;5052812;28;20028;-61
2023/08/01 08:29:27;;;;;;;11.93;3.95;;;21.70;99.90;;;;;;5052038;28;20043;-61
2023/08/01 08:31:52;;;;;;;15.18;4.70;;;21.70;99.90;;;;;;5052353;28;20025;-60
2023/08/01 08:34:18;;;;;;;12.65;4.10;;;21.80;99.90;;;;;;5052254;28;20017;-61
2023/08/01 08:36:44;;;;;;;8.88;3.08;;;21.90;99.90;;;;;;5052285;28;20033;-61
2023/08/01 08:39:10;;;;;;;11.07;3.30;;;22.10;99.90;;;;;;5052110;28;20021;-61
2023/08/01 08:41:43;;;;;;;7.18;3.00;;;22.30;99.90;;;;;;5052023;28;20037;-61
2023/08/01 08:44:10;;;;;;;7.13;3.03;;;22.40;99.90;;;;;;5050398;28;20398;-61
2023/08/01 08:46:43;;;;;;;9.80;3.53;;;22.50;99.90;;;;;;5052266;28;20429;-61
2023/08/01 08:49:09;;;;;;;8.15;2.60;;;22.50;99.90;;;;;;5052080;28;20025;-60
2023/08/01 08:51:37;;;;;;;7.85;2.85;;;22.60;99.90;;;;;;5052008;28;20486;-61
2023/08/01 08:54:04;;;;;;;8.98;2.70;;;22.60;99.90;;;;;;5051842;28;20428;-61
2023/08/01 08:56:30;;;;;;;8.15;2.88;;;22.50;99.90;;;;;;5051907;28;20075;-60
2023/08/01 08:58:57;;;;;;;8.90;2.80;;;22.50;99.90;;;;;;5051869;28;20037;-61
2023/08/01 09:01:22;;;;;;;9.25;3.03;;;22.60;99.90;;;;;;5051821;28;20060;-61
2023/08/01 09:03:48;;;;;;;7.13;3.25;;;22.70;99.90;;;;;;5051795;28;20061;-61
2023/08/01 09:06:15;;;;;;;9.63;3.40;;;22.70;99.90;;;;;;5051773;28;20025;-60
2023/08/01 09:08:50;;;;;;;10.45;3.72;;;22.80;99.90;;;;;;5051669;28;20033;-61
2023/08/01 09:11:16;;;;;;;9.13;3.55;;;22.70;99.90;;;;;;5051357;28;20025;-60
2023/08/01 09:13:42;;;;;;;11.70;3.75;;;22.50;99.90;;;;;;5051836;28;20033;-61
2023/08/01 09:16:10;;;;;;;8.93;3.45;;;22.40;99.90;;;;;;5051786;28;20405;-60
2023/08/01 09:18:55;;;;;;;10.52;4.15;;;22.30;99.90;;;;;;5051421;28;20456;-60
2023/08/01 09:21:22;;;;;;;7.47;3.05;;;22.20;99.90;;;;;;5051360;28;20029;-61
2023/08/01 09:23:48;;;;;;;9.23;3.75;;;22.20;99.90;;;;;;5051224;28;20090;-60
2023/08/01 09:26:18;;;;;;;9.35;3.90;;;22.30;99.90;;;;;;5051288;28;20497;-61
2023/08/01 09:28:54;;;;;;;8.32;3.90;;;22.30;99.90;;;;;;5051860;28;20020;-61
2023/08/01 09:31:27;;;;;;;8.20;3.65;;;22.20;99.90;;;;;;5051111;28;20029;-61
2023/08/01 09:33:52;;;;;;;9.30;4.17;;;22.10;99.90;;;;;;5051640;28;20052;-61
2023/08/01 09:36:23;;;;;;;10.30;4.50;;;22.30;99.90;;;;;;5051185;28;20047;-60
2023/08/01 09:38:49;;;;;;;9.48;3.85;;;22.40;99.90;;;;;;5051524;28;20029;-61
2023/08/01 09:41:18;;;;;;;12.68;3.80;;;22.40;99.90;;;;;;5050963;28;20053;-61
2023/08/01 09:43:46;;;;;;;9.65;3.70;;;22.40;99.90;;;;;;5051571;28;20021;-61
2023/08/01 09:46:12;;;;;;;7.88;3.67;;;22.40;99.90;;;;;;5051440;28;20028;-61
2023/08/01 09:48:38;;;;;;;8.70;3.67;;;22.50;99.90;;;;;;5051227;28;20033;-61
2023/08/01 09:51:08;;;;;;;9.60;3.83;;;22.40;99.90;;;;;;5051230;28;20044;-60
2023/08/01 09:53:35;;;;;;;9.50;3.70;;;22.40;99.90;;;;;;5051005;28;20021;-60
2023/08/01 09:56:01;;;;;;;11.15;4.57;;;22.60;99.90;;;;;;5050762;28;20543;-60
2023/08/01 09:58:33;;;;;;;8.90;3.75;;;22.90;99.90;;;;;;5051443;28;20043;-60
2023/08/01 10:01:00;;;;;;;11.32;4.45;;;23.00;99.90;;;;;;5051089;28;20013;-61
2023/08/01 10:03:28;;;;;;;12.55;5.22;;;23.00;99.90;;;;;;5050956;28;20025;-60
2023/08/01 10:05:56;;;;;;;8.70;3.70;;;23.10;99.90;;;;;;5051306;28;20421;-61
2023/08/01 10:08:22;;;;;;;8.88;3.83;;;23.20;99.90;;;;;;5051112;28;20025;-60
2023/08/01 10:10:49;;;;;;;11.57;4.60;;;23.30;99.90;;;;;;5050461;28;20025;-60
2023/08/01 10:13:14;;;;;;;8.63;3.65;;;23.40;99.90;;;;;;5051818;28;20064;-60
2023/08/01 10:15:41;;;;;;;11.38;3.70;;;23.50;99.90;;;;;;5054955;28;20439;-60
2023/08/01 10:18:08;;;;;;;14.27;3.88;;;23.60;99.90;;;;;;5054755;28;20044;-61
2023/08/01 10:20:36;;;;;;;13.05;4.47;;;23.50;99.90;;;;;;5055002;28;20063;-60
2023/08/01 10:23:02;;;;;;;12.88;4.20;;;23.40;99.90;;;;;;5054786;28;20060;-61
2023/08/01 10:25:30;;;;;;;9.85;3.80;;;23.50;99.90;;;;;;5054490;28;20084;-61
2023/08/01 10:28:00;;;;;;;11.25;3.70;;;23.50;99.90;;;;;;5054914;28;20036;-60
2023/08/01 10:30:27;;;;;;;12.60;4.20;;;23.20;99.90;;;;;;5055123;28;20057;-60
2023/08/01 10:32:56;;;;;;;12.07;3.92;;;23.10;99.90;;;;;;5054548;28;20440;-60
2023/08/01 10:35:35;;;;;;;12.27;4.10;;;23.20;99.90;;;;;;5054424;28;20067;-60
2023/08/01 10:38:11;;;;;;;12.68;3.70;;;23.00;99.90;;;;;;5054497;28;20040;-60
2023/08/01 10:40:42;;;;;;;12.98;3.80;;;23.00;99.90;;;;;;5053187;28;20063;-61
2023/08/01 10:43:28;;;;;;;9.80;3.60;;;23.00;99.90;;;;;;5054438;28;20494;-60
2023/08/01 10:46:03;;;;;;;12.23;4.03;;;22.90;99.90;;;;;;5054238;28;20115;-60
2023/08/01 10:48:29;;;;;;;10.85;3.40;;;22.90;99.90;;;;;;5054417;28;20395;-60
2023/08/01 10:50:58;;;;;;;12.75;3.97;;;22.90;99.90;;;;;;5054388;28;20125;-60
2023/08/01 10:53:24;;;;;;;13.40;3.70;;;23.00;99.90;;;;;;5053742;28;20373;-61
2023/08/01 10:55:50;;;;;;;9.75;3.25;;;22.90;99.90;;;;;;5054673;28;20031;-60
2023/08/01 10:58:15;;;;;;;11.38;3.30;;;22.90;99.90;;;;;;5053983;28;20033;-60
2023/08/01 11:00:44;;;;;;;10.32;3.75;;;23.00;99.90;;;;;;5054250;28;20524;-60
2023/08/01 11:03:10;;;;;;;8.55;3.33;;;22.90;99.90;;;;;;5054188;28;20035;-60
2023/08/01 11:05:37;;;;;;;8.10;3.00;;;23.10;99.90;;;;;;5054008;28;20031;-60
2023/08/01 11:08:03;;;;;;;8.35;3.17;;;23.20;99.90;;;;;;5053534;28;20056;-60
2023/08/01 11:10:31;;;;;;;9.98;3.50;;;23.20;99.90;;;;;;5054202;28;20017;-61
2023/08/01 11:12:57;;;;;;;8.95;2.95;;;23.20;99.90;;;;;;5054144;28;20409;-60
2023/08/01 11:15:24;;;;;;;9.25;3.03;;;23.40;99.90;;;;;;5053908;28;20036;-60
2023/08/01 11:17:51;;;;;;;8.82;3.30;;;23.50;99.90;;;;;;5053858;28;20112;-60
2023/08/01 11:20:20;;;;;;;7.20;3.00;;;23.60;99.90;;;;;;5053632;28;20029;-61
2023/08/01 11:22:57;;;;;;;8.27;2.63;;;23.90;99.90;;;;;;5053298;28;20108;-60
2023/08/01 11:25:45;;;;;;;8.63;3.10;;;23.90;99.90;;;;;;5052356;28;20429;-61
2023/08/01 11:28:14;;;;;;;11.02;2.75;;;24.00;99.90;;;;;;5053537;28;20036;-60
2023/08/01 11:30:40;;;;;;;6.53;2.60;;;24.20;99.90;;;;;;5053530;28;20032;-60
2023/08/01 11:33:23;;;;;;;5.43;2.33;;;24.20;99.90;;;;;;5053612;28;20033;-61
2023/08/01 11:35:53;;;;;;;7.57;2.78;;;24.00;99.90;;;;;;5053406;28;20493;-60
2023/08/01 11:38:21;;;;;;;6.95;2.92;;;24.00;99.90;;;;;;5053467;28;20056;-61
2023/08/01 11:40:49;;;;;;;8.55;3.53;;;24.10;99.90;;;;;;5053433;28;20033;-61
2023/08/01 11:43:15;;;;;;;5.78;2.75;;;24.20;99.90;;;;;;5053388;28;20021;-60
2023/08/01 11:45:58;;;;;;;5.28;2.33;;;24.10;99.90;;;;;;5053314;28;20613;-60
2023/08/01 11:48:24;;;;;;;7.53;2.80;;;24.10;99.90;;;;;;5053068;28;20409;-61
2023/08/01 11:50:59;;;;;;;7.00;2.67;;;24.20;99.90;;;;;;5052794;28;20059;-60
2023/08/01 11:53:25;;;;;;;7.53;2.78;;;24.20;99.90;;;;;;5053433;28;20039;-61
2023/08/01 11:55:56;;;;;;;6.95;2.70;;;24.30;99.90;;;;;;5053113;28;20032;-61
2023/08/01 11:58:32;;;;;;;7.30;2.88;;;24.30;99.90;;;;;;5052946;28;20048;-60
2023/08/01 12:01:16;;;;;;;6.95;2.10;;;24.30;99.90;;;;;;5052960;28;20025;-60
2023/08/01 12:03:46;;;;;;;7.10;2.35;;;24.20;99.90;;;;;;5052827;28;20029;-60
2023/08/01 12:06:16;;;;;;;5.90;2.50;;;24.30;99.90;;;;;;5052491;28;20032;-61
2023/08/01 12:08:43;;;;;;;5.45;2.00;;;24.40;99.90;;;;;;5053268;28;20031;-61
2023/08/01 12:11:38;;;;;;;6.68;2.00;;;24.30;99.90;;;;;;5052775;28;20029;-60
2023/08/01 12:14:11;;;;;;;5.68;2.10;;;24.50;99.90;;;;;;5047936;28;20044;-61
2023/08/01 12:16:46;;;;;;;6.60;2.40;;;24.30;99.90;;;;;;5052804;28;20032;-60
2023/08/01 12:19:19;;;;;;;6.47;2.00;;;24.20;99.90;;;;;;5052518;28;20037;-61
2023/08/01 12:21:45;;;;;;;5.68;1.90;;;24.20;99.90;;;;;;5050997;28;20067;-61
2023/08/01 12:24:11;;;;;;;5.25;2.05;;;24.10;99.90;;;;;;5052384;28;20635;-60
2023/08/01 12:26:36;;;;;;;3.72;2.03;;;24.10;99.90;;;;;;5052582;28;20041;-60
2023/08/01 12:29:02;;;;;;;4.50;1.88;;;24.20;99.90;;;;;;5052915;28;20512;-60
2023/08/01 12:31:28;;;;;;;6.05;2.53;;;24.40;99.90;;;;;;5052433;28;20039;-60
2023/08/01 12:33:54;;;;;;;5.60;2.10;;;24.50;99.90;;;;;;5052318;28;20057;-60
2023/08/01 12:36:20;;;;;;;4.40;2.10;;;24.60;99.90;;;;;;5051582;28;20025;-60
2023/08/01 12:38:46;;;;;;;6.50;2.28;;;24.90;99.90;;;;;;5052203;28;20119;-61
2023/08/01 12:41:12;;;;;;;7.13;2.15;;;25.00;99.90;;;;;;5052249;28;20481;-61